createdAt,value
2018-12-06T00:00:06.795Z,0.00
2018-12-06T00:01:06.715Z,0.00
2018-12-06T00:02:06.635Z,0.00
2018-12-06T00:03:06.558Z,0.00
2018-12-06T00:04:06.474Z,0.00
2018-12-06T00:05:06.395Z,0.00
2018-12-06T00:06:06.317Z,0.00
2018-12-06T00:07:06.235Z,0.00
2018-12-06T00:08:06.153Z,0.00
2018-12-06T00:09:06.074Z,0.00
2018-12-06T00:10:05.994Z,0.00
2018-12-06T00:11:05.917Z,0.00
2018-12-06T00:12:05.834Z,0.00
2018-12-06T00:13:05.755Z,0.00
2018-12-06T00:14:05.775Z,0.00
2018-12-06T00:15:05.594Z,0.00
2018-12-06T00:16:05.513Z,0.00
2018-12-06T00:17:05.437Z,0.00
2018-12-06T00:18:05.357Z,0.00
2018-12-06T00:19:05.276Z,0.00
2018-12-06T00:20:05.194Z,0.00
2018-12-06T00:21:05.116Z,0.00
2018-12-06T00:22:05.035Z,0.00
2018-12-06T00:23:04.954Z,0.00
2018-12-06T00:24:05.122Z,0.00
2018-12-06T00:25:04.799Z,0.00
2018-12-06T00:26:04.715Z,0.00
2018-12-06T00:27:04.634Z,0.00
2018-12-06T00:28:04.553Z,0.00
2018-12-06T00:29:04.474Z,0.00
2018-12-06T00:30:04.395Z,0.00
2018-12-06T00:31:04.316Z,0.00
2018-12-06T00:32:04.235Z,0.00
2018-12-06T00:33:04.156Z,0.00
2018-12-06T00:34:04.076Z,0.00
2018-12-06T00:35:03.997Z,0.00
2018-12-06T00:36:03.917Z,0.00
2018-12-06T00:37:03.839Z,0.00
2018-12-06T00:38:03.756Z,0.00
2018-12-06T00:39:03.678Z,0.00
2018-12-06T00:40:03.596Z,0.00
2018-12-06T00:41:03.517Z,0.00
2018-12-06T00:42:03.438Z,0.00
2018-12-06T00:43:03.360Z,0.00
2018-12-06T00:44:03.277Z,0.00
2018-12-06T00:45:03.200Z,0.00
2018-12-06T00:46:03.119Z,0.00
2018-12-06T00:47:03.040Z,0.00
2018-12-06T00:48:02.960Z,0.00
2018-12-06T00:49:02.879Z,0.00
2018-12-06T00:50:02.852Z,0.00
2018-12-06T00:51:02.720Z,0.00
2018-12-06T00:52:02.639Z,0.00
2018-12-06T00:53:02.563Z,0.00
2018-12-06T00:54:02.481Z,0.00
2018-12-06T00:55:02.401Z,0.00
2018-12-06T00:56:02.370Z,0.00
2018-12-06T00:57:02.241Z,0.00
2018-12-06T00:58:02.161Z,0.00
2018-12-06T00:59:02.083Z,0.00
2018-12-06T01:00:02.001Z,0.00
2018-12-06T01:01:02.021Z,0.00
2018-12-06T01:02:01.841Z,0.00
2018-12-06T01:03:01.763Z,0.00
2018-12-06T01:04:01.681Z,0.00
2018-12-06T01:05:01.602Z,0.00
2018-12-06T01:06:01.523Z,0.00
2018-12-06T01:07:01.444Z,0.00
2018-12-06T01:08:01.365Z,0.00
2018-12-06T01:09:01.282Z,0.00
2018-12-06T01:10:01.208Z,0.00
2018-12-06T01:11:01.124Z,0.00
2018-12-06T01:12:01.044Z,0.00
2018-12-06T01:13:00.964Z,0.00
2018-12-06T01:14:00.885Z,0.00
2018-12-06T01:15:00.805Z,0.00
2018-12-06T01:16:00.724Z,0.00
2018-12-06T01:17:00.644Z,0.00
2018-12-06T01:18:00.566Z,0.00
2018-12-06T01:19:00.488Z,0.00
2018-12-06T01:20:00.408Z,0.00
2018-12-06T01:21:00.324Z,0.00
2018-12-06T01:22:00.247Z,0.00
2018-12-06T01:23:00.167Z,0.00
2018-12-06T01:24:00.086Z,0.00
2018-12-06T01:25:00.007Z,0.00
2018-12-06T01:25:59.978Z,0.00
2018-12-06T01:26:59.849Z,0.00
2018-12-06T01:27:59.768Z,0.00
2018-12-06T01:28:59.691Z,0.00
2018-12-06T01:29:59.609Z,0.00
2018-12-06T01:30:59.531Z,0.00
2018-12-06T01:31:59.450Z,0.00
2018-12-06T01:32:59.371Z,0.00
2018-12-06T01:33:59.293Z,0.00
2018-12-06T01:34:59.214Z,0.00
2018-12-06T01:35:59.132Z,0.00
2018-12-06T01:36:59.053Z,0.00
2018-12-06T01:37:58.974Z,0.00
2018-12-06T01:38:58.896Z,0.00
2018-12-06T01:39:58.815Z,0.00
2018-12-06T01:40:58.735Z,0.00
2018-12-06T01:41:58.655Z,0.00
2018-12-06T01:42:58.576Z,0.00
2018-12-06T01:43:58.497Z,0.00
2018-12-06T01:44:58.417Z,0.00
2018-12-06T01:45:58.337Z,0.00
2018-12-06T01:46:58.509Z,0.00
2018-12-06T01:47:58.179Z,0.00
2018-12-06T01:48:58.099Z,0.00
2018-12-06T01:49:58.021Z,0.00
2018-12-06T01:50:57.941Z,0.00
2018-12-06T01:51:57.860Z,0.00
2018-12-06T01:52:57.782Z,0.00
2018-12-06T01:53:57.702Z,0.00
2018-12-06T01:54:57.624Z,0.00
2018-12-06T01:55:57.542Z,0.00
2018-12-06T01:56:57.464Z,0.00
2018-12-06T01:57:57.384Z,0.00
2018-12-06T01:58:57.305Z,0.00
2018-12-06T01:59:57.224Z,0.00
2018-12-06T02:00:57.146Z,0.00
2018-12-06T02:01:57.066Z,0.00
2018-12-06T02:02:56.987Z,0.00
2018-12-06T02:03:56.908Z,0.00
2018-12-06T02:04:56.829Z,0.00
2018-12-06T02:05:56.749Z,0.00
2018-12-06T02:06:56.669Z,0.00
2018-12-06T02:07:56.589Z,0.00
2018-12-06T02:08:56.509Z,0.00
2018-12-06T02:09:56.430Z,0.00
2018-12-06T02:10:56.349Z,0.00
2018-12-06T02:11:56.270Z,0.00
2018-12-06T02:12:56.189Z,0.00
2018-12-06T02:13:56.111Z,0.00
2018-12-06T02:14:56.031Z,0.00
2018-12-06T02:15:55.950Z,0.00
2018-12-06T02:16:55.871Z,0.00
2018-12-06T02:17:55.792Z,0.00
2018-12-06T02:18:55.713Z,0.00
2018-12-06T02:19:55.650Z,0.00
2018-12-06T02:20:55.552Z,0.00
2018-12-06T02:21:55.474Z,0.00
2018-12-06T02:22:55.494Z,0.00
2018-12-06T02:23:55.314Z,0.00
2018-12-06T02:24:55.234Z,0.00
2018-12-06T02:25:55.155Z,0.00
2018-12-06T02:26:55.075Z,0.00
2018-12-06T02:27:54.996Z,0.00
2018-12-06T02:28:54.916Z,0.00
2018-12-06T02:29:54.842Z,0.00
2018-12-06T02:30:54.758Z,0.00
2018-12-06T02:31:54.681Z,0.00
2018-12-06T02:32:54.600Z,0.00
2018-12-06T02:33:54.520Z,0.00
2018-12-06T02:34:54.440Z,0.00
2018-12-06T02:35:54.360Z,0.00
2018-12-06T02:36:54.280Z,0.00
2018-12-06T02:37:54.201Z,0.00
2018-12-06T02:38:54.223Z,0.00
2018-12-06T02:39:54.041Z,0.00
2018-12-06T02:40:53.962Z,0.00
2018-12-06T02:41:53.884Z,0.00
2018-12-06T02:42:53.804Z,0.00
2018-12-06T02:43:53.724Z,0.00
2018-12-06T02:44:53.647Z,0.00
2018-12-06T02:45:53.565Z,0.00
2018-12-06T02:46:53.490Z,0.00
2018-12-06T02:47:53.405Z,0.00
2018-12-06T02:48:53.327Z,0.00
2018-12-06T02:49:53.248Z,0.00
2018-12-06T02:50:53.169Z,0.00
2018-12-06T02:51:53.089Z,0.00
2018-12-06T02:52:53.009Z,0.00
2018-12-06T02:53:52.930Z,0.00
2018-12-06T02:54:52.851Z,0.00
2018-12-06T02:55:52.771Z,0.00
2018-12-06T02:56:52.692Z,0.00
2018-12-06T02:57:52.618Z,0.00
2018-12-06T02:58:52.534Z,0.00
2018-12-06T02:59:52.452Z,0.00
2018-12-06T03:00:52.475Z,0.00
2018-12-06T03:01:52.296Z,0.00
2018-12-06T03:02:52.217Z,0.00
2018-12-06T03:03:52.137Z,0.00
2018-12-06T03:04:52.056Z,0.00
2018-12-06T03:05:52.230Z,0.00
2018-12-06T03:06:51.899Z,0.00
2018-12-06T03:07:51.823Z,0.00
2018-12-06T03:08:51.740Z,0.00
2018-12-06T03:09:51.663Z,0.00
2018-12-06T03:10:51.583Z,0.00
2018-12-06T03:11:51.504Z,0.00
2018-12-06T03:12:51.427Z,0.00
2018-12-06T03:13:51.345Z,0.00
2018-12-06T03:14:51.266Z,0.00
2018-12-06T03:15:51.186Z,0.00
2018-12-06T03:16:51.107Z,0.00
2018-12-06T03:17:51.030Z,0.00
2018-12-06T03:18:50.955Z,0.00
2018-12-06T03:19:50.878Z,0.00
2018-12-06T03:20:50.795Z,0.00
2018-12-06T03:21:50.713Z,0.00
2018-12-06T03:22:50.634Z,0.00
2018-12-06T03:23:50.556Z,0.00
2018-12-06T03:24:50.476Z,0.00
2018-12-06T03:25:50.648Z,0.00
2018-12-06T03:26:50.318Z,0.00
2018-12-06T03:27:50.240Z,0.00
2018-12-06T03:28:50.160Z,0.00
2018-12-06T03:29:50.082Z,0.00
2018-12-06T03:30:50.008Z,0.00
2018-12-06T03:31:49.925Z,0.00
2018-12-06T03:32:49.845Z,0.00
2018-12-06T03:33:49.768Z,0.00
2018-12-06T03:34:49.687Z,0.00
2018-12-06T03:35:49.657Z,0.00
2018-12-06T03:36:49.529Z,0.00
2018-12-06T03:37:49.450Z,0.00
2018-12-06T03:38:49.371Z,0.00
2018-12-06T03:39:49.292Z,0.00
2018-12-06T03:40:49.214Z,0.00
2018-12-06T03:41:49.134Z,0.00
2018-12-06T03:42:49.059Z,0.00
2018-12-06T03:43:48.981Z,0.00
2018-12-06T03:44:48.897Z,0.00
2018-12-06T03:45:48.817Z,0.00
2018-12-06T03:46:48.741Z,0.00
2018-12-06T03:47:48.660Z,0.00
2018-12-06T03:48:48.581Z,0.00
2018-12-06T03:49:48.502Z,0.00
2018-12-06T03:50:48.423Z,0.00
2018-12-06T03:51:48.347Z,0.00
2018-12-06T03:52:48.263Z,0.00
2018-12-06T03:53:48.187Z,0.00
2018-12-06T03:54:48.110Z,0.00
2018-12-06T03:55:48.026Z,0.00
2018-12-06T03:56:47.947Z,0.00
2018-12-06T03:57:47.868Z,0.00
2018-12-06T03:58:47.798Z,0.00
2018-12-06T03:59:47.710Z,0.00
2018-12-06T04:00:47.631Z,0.00
2018-12-06T04:01:47.552Z,0.00
2018-12-06T04:02:47.472Z,0.00
2018-12-06T04:03:47.393Z,0.00
2018-12-06T04:04:47.315Z,0.00
2018-12-06T04:05:47.234Z,0.00
2018-12-06T04:06:47.206Z,0.00
2018-12-06T04:07:47.075Z,0.00
2018-12-06T04:08:46.997Z,0.00
2018-12-06T04:09:46.920Z,0.00
2018-12-06T04:10:46.839Z,0.00
2018-12-06T04:11:46.758Z,0.00
2018-12-06T04:12:46.679Z,0.00
2018-12-06T04:13:46.602Z,0.00
2018-12-06T04:14:46.594Z,0.00
2018-12-06T04:15:46.442Z,0.00
2018-12-06T04:16:46.364Z,0.00
2018-12-06T04:17:46.286Z,0.00
2018-12-06T04:18:46.205Z,0.00
2018-12-06T04:19:46.126Z,0.00
2018-12-06T04:20:46.046Z,0.00
2018-12-06T04:21:45.968Z,0.00
2018-12-06T04:22:45.887Z,0.00
2018-12-06T04:23:45.808Z,0.00
2018-12-06T04:24:45.729Z,0.00
2018-12-06T04:25:45.649Z,0.00
2018-12-06T04:26:45.569Z,0.00
2018-12-06T04:27:45.490Z,0.00
2018-12-06T04:28:45.410Z,0.00
2018-12-06T04:29:45.331Z,0.00
2018-12-06T04:30:45.254Z,0.00
2018-12-06T04:31:45.172Z,0.00
2018-12-06T04:32:45.099Z,0.00
2018-12-06T04:33:45.014Z,0.00
2018-12-06T04:34:44.937Z,0.00
2018-12-06T04:35:44.863Z,0.00
2018-12-06T04:36:44.853Z,0.00
2018-12-06T04:37:44.698Z,0.00
2018-12-06T04:38:44.625Z,0.00
2018-12-06T04:39:44.540Z,0.00
2018-12-06T04:40:44.467Z,0.00
2018-12-06T04:41:44.382Z,0.00
2018-12-06T04:42:44.304Z,0.00
2018-12-06T04:43:44.229Z,0.00
2018-12-06T04:44:44.151Z,0.00
2018-12-06T04:45:44.068Z,0.00
2018-12-06T04:46:43.988Z,0.00
2018-12-06T04:47:43.909Z,0.00
2018-12-06T04:48:43.830Z,0.00
2018-12-06T04:49:43.750Z,0.00
2018-12-06T04:50:43.673Z,0.00
2018-12-06T04:51:43.592Z,0.00
2018-12-06T04:52:43.514Z,0.00
2018-12-06T04:53:43.440Z,0.00
2018-12-06T04:54:43.357Z,0.00
2018-12-06T04:55:43.278Z,0.00
2018-12-06T04:56:43.201Z,0.00
2018-12-06T04:57:43.119Z,0.00
2018-12-06T04:58:43.041Z,0.00
2018-12-06T04:59:42.962Z,0.00
2018-12-06T05:00:42.888Z,0.00
2018-12-06T05:01:42.803Z,0.00
2018-12-06T05:02:42.726Z,0.00
2018-12-06T05:03:42.645Z,0.00
2018-12-06T05:04:42.565Z,0.00
2018-12-06T05:05:42.490Z,0.00
2018-12-06T05:06:42.411Z,0.00
2018-12-06T05:07:42.329Z,0.00
2018-12-06T05:08:42.254Z,0.00
2018-12-06T05:09:42.174Z,0.00
2018-12-06T05:10:42.094Z,0.00
2018-12-06T05:11:42.014Z,0.00
2018-12-06T05:12:41.936Z,0.00
2018-12-06T05:13:41.957Z,0.00
2018-12-06T05:14:41.779Z,0.00
2018-12-06T05:15:41.699Z,0.00
2018-12-06T05:16:41.620Z,0.00
2018-12-06T05:17:41.542Z,0.00
2018-12-06T05:18:41.463Z,0.00
2018-12-06T05:19:41.383Z,0.00
2018-12-06T05:20:41.310Z,0.00
2018-12-06T05:21:41.226Z,0.00
2018-12-06T05:22:41.147Z,0.00
2018-12-06T05:23:41.070Z,0.00
2018-12-06T05:24:40.991Z,0.00
2018-12-06T05:25:40.910Z,0.00
2018-12-06T05:26:40.832Z,0.00
2018-12-06T05:27:40.750Z,0.00
2018-12-06T05:28:40.675Z,0.00
2018-12-06T05:29:40.594Z,0.00
2018-12-06T05:30:40.515Z,0.00
2018-12-06T05:31:40.436Z,0.00
2018-12-06T05:32:40.356Z,0.00
2018-12-06T05:33:40.530Z,0.00
2018-12-06T05:34:40.200Z,0.00
2018-12-06T05:35:40.120Z,0.00
2018-12-06T05:36:40.045Z,0.00
2018-12-06T05:37:39.962Z,0.00
2018-12-06T05:38:41.695Z,0.00
2018-12-06T05:39:39.803Z,0.00
2018-12-06T05:40:39.726Z,0.00
2018-12-06T05:41:39.702Z,0.00
2018-12-06T05:42:39.569Z,0.00
2018-12-06T05:43:39.491Z,0.00
2018-12-06T05:44:39.411Z,0.00
2018-12-06T05:45:39.330Z,0.00
2018-12-06T05:46:39.251Z,0.00
2018-12-06T05:47:39.172Z,0.00
2018-12-06T05:48:39.095Z,0.00
2018-12-06T05:49:39.017Z,0.00
2018-12-06T05:50:38.936Z,0.00
2018-12-06T05:51:38.857Z,0.00
2018-12-06T05:52:38.777Z,0.00
2018-12-06T05:53:38.702Z,0.00
2018-12-06T05:54:38.622Z,0.00
2018-12-06T05:55:38.543Z,0.00
2018-12-06T05:56:38.465Z,0.00
2018-12-06T05:57:38.387Z,0.00
2018-12-06T05:58:38.310Z,0.00
2018-12-06T05:59:38.229Z,0.00
2018-12-06T06:00:38.149Z,0.00
2018-12-06T06:01:38.071Z,0.00
2018-12-06T06:02:37.993Z,0.00
2018-12-06T06:03:37.913Z,0.00
2018-12-06T06:04:37.835Z,0.00
2018-12-06T06:05:38.006Z,0.00
2018-12-06T06:06:37.677Z,0.00
2018-12-06T06:07:37.598Z,0.00
2018-12-06T06:08:37.518Z,0.00
2018-12-06T06:09:37.440Z,0.00
2018-12-06T06:10:37.360Z,0.00
2018-12-06T06:11:37.282Z,0.00
2018-12-06T06:12:37.205Z,0.00
2018-12-06T06:13:37.124Z,0.00
2018-12-06T06:14:37.045Z,0.00
2018-12-06T06:15:36.965Z,0.00
2018-12-06T06:16:36.887Z,0.00
2018-12-06T06:17:36.808Z,0.00
2018-12-06T06:18:36.729Z,0.00
2018-12-06T06:19:36.650Z,0.00
2018-12-06T06:20:36.673Z,0.00
2018-12-06T06:21:36.493Z,0.00
2018-12-06T06:22:36.414Z,0.00
2018-12-06T06:23:36.335Z,0.00
2018-12-06T06:24:36.256Z,0.00
2018-12-06T06:25:36.180Z,0.00
2018-12-06T06:26:36.148Z,0.00
2018-12-06T06:27:36.019Z,0.00
2018-12-06T06:28:35.940Z,0.00
2018-12-06T06:29:35.862Z,0.00
2018-12-06T06:30:35.782Z,0.00
2018-12-06T06:31:35.705Z,0.00
2018-12-06T06:32:35.633Z,0.00
2018-12-06T06:33:35.546Z,0.00
2018-12-06T06:34:35.468Z,0.00
2018-12-06T06:35:35.389Z,0.00
2018-12-06T06:36:35.309Z,0.00
2018-12-06T06:37:35.230Z,0.00
2018-12-06T06:38:35.151Z,0.00
2018-12-06T06:39:35.073Z,0.00
2018-12-06T06:40:34.993Z,0.00
2018-12-06T06:41:34.914Z,0.00
2018-12-06T06:42:34.838Z,0.00
2018-12-06T06:43:34.755Z,4.00
2018-12-06T06:44:34.680Z,4.00
2018-12-06T06:45:34.599Z,0.00
2018-12-06T06:46:34.519Z,0.00
2018-12-06T06:47:34.517Z,4.00
2018-12-06T06:48:34.363Z,4.00
2018-12-06T06:49:34.283Z,8.00
2018-12-06T06:50:34.204Z,4.00
2018-12-06T06:51:34.124Z,4.00
2018-12-06T06:52:34.046Z,4.00
2018-12-06T06:53:33.967Z,8.00
2018-12-06T06:54:33.888Z,12.00
2018-12-06T06:55:33.809Z,12.00
2018-12-06T06:56:33.729Z,12.00
2018-12-06T06:57:33.651Z,12.00
2018-12-06T06:58:33.572Z,12.00
2018-12-06T06:59:33.493Z,16.00
2018-12-06T07:00:33.416Z,16.00
2018-12-06T07:01:33.334Z,20.00
2018-12-06T07:02:33.256Z,20.00
2018-12-06T07:03:33.222Z,24.00
2018-12-06T07:04:33.098Z,24.00
2018-12-06T07:05:33.019Z,28.00
2018-12-06T07:06:32.940Z,28.00
2018-12-06T07:07:32.861Z,32.00
2018-12-06T07:08:32.832Z,36.00
2018-12-06T07:09:32.802Z,36.00
2018-12-06T07:10:32.624Z,40.00
2018-12-06T07:11:32.544Z,40.00
2018-12-06T07:12:32.465Z,40.00
2018-12-06T07:13:32.386Z,48.00
2018-12-06T07:14:32.310Z,52.00
2018-12-06T07:15:32.227Z,48.00
2018-12-06T07:16:32.151Z,60.00
2018-12-06T07:17:32.076Z,56.00
2018-12-06T07:18:31.991Z,52.00
2018-12-06T07:19:31.912Z,60.00
2018-12-06T07:20:31.832Z,60.00
2018-12-06T07:21:31.753Z,72.00
2018-12-06T07:22:31.674Z,72.00
2018-12-06T07:23:31.595Z,72.00
2018-12-06T07:24:31.565Z,96.00
2018-12-06T07:25:31.436Z,80.00
2018-12-06T07:26:31.411Z,96.00
2018-12-06T07:27:31.279Z,116.00
2018-12-06T07:28:31.198Z,124.00
2018-12-06T07:29:31.121Z,132.00
2018-12-06T07:30:31.041Z,132.00
2018-12-06T07:31:30.962Z,140.00
2018-12-06T07:32:30.883Z,128.00
2018-12-06T07:33:30.804Z,156.00
2018-12-06T07:34:30.724Z,124.00
2018-12-06T07:35:32.229Z,108.00
2018-12-06T07:36:30.567Z,108.00
2018-12-06T07:37:30.489Z,108.00
2018-12-06T07:38:30.409Z,104.00
2018-12-06T07:39:30.329Z,80.00
2018-12-06T07:40:30.250Z,88.00
2018-12-06T07:41:30.271Z,80.00
2018-12-06T07:42:30.093Z,88.00
2018-12-06T07:43:30.013Z,108.00
2018-12-06T07:44:29.934Z,116.00
2018-12-06T07:45:29.856Z,104.00
2018-12-06T07:46:29.777Z,108.00
2018-12-06T07:47:29.699Z,96.00
2018-12-06T07:48:29.623Z,92.00
2018-12-06T07:49:29.541Z,132.00
2018-12-06T07:50:29.462Z,152.00
2018-12-06T07:51:29.384Z,176.00
2018-12-06T07:52:29.303Z,188.00
2018-12-06T07:53:29.226Z,196.00
2018-12-06T07:54:29.147Z,224.00
2018-12-06T07:55:29.067Z,236.00
2018-12-06T07:56:28.989Z,244.00
2018-12-06T07:57:28.992Z,284.00
2018-12-06T07:58:28.830Z,228.00
2018-12-06T07:59:28.750Z,264.00
2018-12-06T08:00:28.672Z,256.00
2018-12-06T08:01:28.594Z,284.00
2018-12-06T08:02:28.516Z,416.00
2018-12-06T08:03:28.436Z,500.00
2018-12-06T08:04:28.358Z,636.00
2018-12-06T08:05:28.280Z,608.00
2018-12-06T08:06:28.254Z,532.00
2018-12-06T08:07:28.122Z,696.00
2018-12-06T08:08:28.042Z,664.00
2018-12-06T08:09:27.964Z,704.00
2018-12-06T08:10:27.884Z,736.00
2018-12-06T08:11:27.805Z,788.00
2018-12-06T08:12:27.726Z,796.00
2018-12-06T08:13:27.648Z,820.00
2018-12-06T08:14:27.569Z,1012.00
2018-12-06T08:15:27.489Z,1220.00
2018-12-06T08:16:27.461Z,1288.00
2018-12-06T08:17:27.333Z,1300.00
2018-12-06T08:18:27.254Z,992.00
2018-12-06T08:19:27.180Z,856.00
2018-12-06T08:20:27.098Z,744.00
2018-12-06T08:21:27.274Z,748.00
2018-12-06T08:22:26.939Z,720.00
2018-12-06T08:23:26.861Z,672.00
2018-12-06T08:24:26.782Z,768.00
2018-12-06T08:25:26.705Z,768.00
2018-12-06T08:26:26.727Z,684.00
2018-12-06T08:27:26.546Z,676.00
2018-12-06T08:28:26.468Z,656.00
2018-12-06T08:29:26.391Z,652.00
2018-12-06T08:30:26.314Z,500.00
2018-12-06T08:31:26.232Z,636.00
2018-12-06T08:32:26.154Z,728.00
2018-12-06T08:33:26.075Z,764.00
2018-12-06T08:34:25.997Z,724.00
2018-12-06T08:35:25.917Z,600.00
2018-12-06T08:36:25.839Z,592.00
2018-12-06T08:37:25.761Z,712.00
2018-12-06T08:38:25.684Z,696.00
2018-12-06T08:39:25.605Z,816.00
2018-12-06T08:40:25.525Z,964.00
2018-12-06T08:41:25.449Z,968.00
2018-12-06T08:42:25.373Z,904.00
2018-12-06T08:43:25.290Z,860.00
2018-12-06T08:44:25.211Z,964.00
2018-12-06T08:45:25.135Z,772.00
2018-12-06T08:46:25.057Z,768.00
2018-12-06T08:47:24.977Z,876.00
2018-12-06T08:48:24.899Z,1244.00
2018-12-06T08:49:24.821Z,1136.00
2018-12-06T08:50:24.744Z,1132.00
2018-12-06T08:51:24.763Z,1460.00
2018-12-06T08:52:24.586Z,1380.00
2018-12-06T08:53:24.509Z,1428.00
2018-12-06T08:54:24.430Z,1576.00
2018-12-06T08:55:24.350Z,1764.00
2018-12-06T08:56:24.273Z,2192.00
2018-12-06T08:57:24.195Z,2268.00
2018-12-06T08:58:24.117Z,2376.00
2018-12-06T08:59:24.039Z,2412.00
2018-12-06T09:00:23.960Z,2652.00
2018-12-06T09:01:23.982Z,2884.00
2018-12-06T09:02:23.804Z,2944.00
2018-12-06T09:03:23.725Z,2736.00
2018-12-06T09:04:23.648Z,3084.00
2018-12-06T09:05:23.570Z,3772.00
2018-12-06T09:06:23.492Z,4464.00
2018-12-06T09:07:23.415Z,4996.00
2018-12-06T09:08:23.336Z,5348.00
2018-12-06T09:09:23.257Z,4696.00
2018-12-06T09:10:23.188Z,4220.00
2018-12-06T09:11:23.102Z,4144.00
2018-12-06T09:12:23.025Z,4132.00
2018-12-06T09:13:22.948Z,4024.00
2018-12-06T09:14:22.870Z,3824.00
2018-12-06T09:15:22.841Z,3892.00
2018-12-06T09:16:22.715Z,4360.00
2018-12-06T09:17:22.638Z,4884.00
2018-12-06T09:18:22.558Z,5332.00
2018-12-06T09:19:22.481Z,5608.00
2018-12-06T09:20:22.404Z,5884.00
2018-12-06T09:21:22.338Z,5856.00
2018-12-06T09:22:22.254Z,5340.00
2018-12-06T09:23:22.172Z,4940.00
2018-12-06T09:24:22.094Z,3900.00
2018-12-06T09:25:22.018Z,3620.00
2018-12-06T09:26:21.940Z,4540.00
2018-12-06T09:27:21.863Z,4344.00
2018-12-06T09:28:21.786Z,4060.00
2018-12-06T09:29:21.708Z,4580.00
2018-12-06T09:30:21.636Z,4392.00
2018-12-06T09:31:21.554Z,4280.00
2018-12-06T09:32:21.481Z,4584.00
2018-12-06T09:33:21.404Z,3796.00
2018-12-06T09:34:21.323Z,4024.00
2018-12-06T09:35:21.245Z,3428.00
2018-12-06T09:36:21.168Z,3096.00
2018-12-06T09:37:21.094Z,2952.00
2018-12-06T09:38:21.018Z,2240.00
2018-12-06T09:39:20.937Z,1936.00
2018-12-06T09:40:20.859Z,1944.00
2018-12-06T09:41:20.783Z,1888.00
2018-12-06T09:42:20.706Z,1612.00
2018-12-06T09:43:20.629Z,1920.00
2018-12-06T09:44:20.551Z,2120.00
2018-12-06T09:45:20.474Z,1840.00
2018-12-06T09:46:20.397Z,1852.00
2018-12-06T09:47:20.319Z,1928.00
2018-12-06T09:48:20.242Z,1988.00
2018-12-06T09:49:20.166Z,1828.00
2018-12-06T09:50:20.088Z,2128.00
2018-12-06T09:51:20.012Z,1968.00
2018-12-06T09:52:19.934Z,2844.00
2018-12-06T09:53:19.856Z,2288.00
2018-12-06T09:54:19.779Z,2388.00
2018-12-06T09:55:19.702Z,2992.00
2018-12-06T09:56:19.624Z,2788.00
2018-12-06T09:57:19.551Z,2908.00
2018-12-06T09:58:19.469Z,2812.00
2018-12-06T09:59:19.391Z,3116.00
2018-12-06T10:00:19.315Z,3088.00
2018-12-06T10:01:19.237Z,3156.00
2018-12-06T10:02:19.160Z,3252.00
2018-12-06T10:03:19.082Z,3004.00
2018-12-06T10:04:19.004Z,2728.00
2018-12-06T10:05:18.927Z,3592.00
2018-12-06T10:06:18.851Z,3276.00
2018-12-06T10:07:18.772Z,2716.00
2018-12-06T10:08:18.695Z,2868.00
2018-12-06T10:09:18.618Z,2780.00
2018-12-06T10:10:18.541Z,2572.00
2018-12-06T10:11:18.464Z,2204.00
2018-12-06T10:12:18.386Z,1976.00
2018-12-06T10:13:18.309Z,1676.00
2018-12-06T10:14:19.687Z,1572.00
2018-12-06T10:15:18.157Z,1464.00
2018-12-06T10:16:18.081Z,1316.00
2018-12-06T10:17:18.000Z,1480.00
2018-12-06T10:18:17.925Z,1448.00
2018-12-06T10:19:17.846Z,1232.00
2018-12-06T10:20:17.766Z,1436.00
2018-12-06T10:21:17.689Z,1668.00
2018-12-06T10:22:17.613Z,1712.00
2018-12-06T10:23:17.534Z,1624.00
2018-12-06T10:24:17.458Z,1588.00
2018-12-06T10:25:17.379Z,1396.00
2018-12-06T10:26:17.303Z,1576.00
2018-12-06T10:27:17.226Z,1180.00
2018-12-06T10:28:17.146Z,1176.00
2018-12-06T10:29:17.072Z,1268.00
2018-12-06T10:30:16.994Z,1260.00
2018-12-06T10:31:16.914Z,1276.00
2018-12-06T10:32:16.839Z,1188.00
2018-12-06T10:33:16.759Z,1500.00
2018-12-06T10:34:16.683Z,1160.00
2018-12-06T10:35:16.604Z,1100.00
2018-12-06T10:36:16.526Z,1408.00
2018-12-06T10:37:16.450Z,1264.00
2018-12-06T10:38:16.372Z,1420.00
2018-12-06T10:39:16.298Z,1272.00
2018-12-06T10:40:16.216Z,1140.00
2018-12-06T10:41:16.139Z,1312.00
2018-12-06T10:42:16.061Z,1260.00
2018-12-06T10:43:15.983Z,1196.00
2018-12-06T10:44:15.905Z,1080.00
2018-12-06T10:45:15.829Z,1072.00
2018-12-06T10:46:15.751Z,1248.00
2018-12-06T10:47:15.671Z,1248.00
2018-12-06T10:48:15.593Z,1240.00
2018-12-06T10:49:15.516Z,1128.00
2018-12-06T10:50:15.441Z,1080.00
2018-12-06T10:51:15.360Z,1136.00
2018-12-06T10:52:15.283Z,1324.00
2018-12-06T10:53:15.206Z,1472.00
2018-12-06T10:54:15.128Z,1364.00
2018-12-06T10:55:15.050Z,1172.00
2018-12-06T10:56:14.973Z,1100.00
2018-12-06T10:57:14.895Z,1012.00
2018-12-06T10:58:14.818Z,1092.00
2018-12-06T10:59:14.739Z,1168.00
2018-12-06T11:00:14.660Z,1188.00
2018-12-06T11:01:14.583Z,1168.00
2018-12-06T11:02:14.510Z,1700.00
2018-12-06T11:03:14.427Z,1152.00
2018-12-06T11:04:14.350Z,1196.00
2018-12-06T11:05:14.277Z,1508.00
2018-12-06T11:06:14.198Z,1620.00
2018-12-06T11:07:14.117Z,2248.00
2018-12-06T11:08:14.040Z,1444.00
2018-12-06T11:09:13.963Z,1868.00
2018-12-06T11:10:13.885Z,2008.00
2018-12-06T11:11:13.905Z,2512.00
2018-12-06T11:12:13.729Z,2560.00
2018-12-06T11:13:13.653Z,2172.00
2018-12-06T11:14:13.577Z,2088.00
2018-12-06T11:15:13.498Z,2136.00
2018-12-06T11:16:13.419Z,2260.00
2018-12-06T11:17:13.361Z,2308.00
2018-12-06T11:18:13.267Z,2324.00
2018-12-06T11:19:13.189Z,2284.00
2018-12-06T11:20:13.110Z,1936.00
2018-12-06T11:21:13.037Z,1936.00
2018-12-06T11:22:12.956Z,1908.00
2018-12-06T11:23:12.880Z,2000.00
2018-12-06T11:24:12.828Z,2156.00
2018-12-06T11:25:12.726Z,2436.00
2018-12-06T11:26:12.655Z,2752.00
2018-12-06T11:27:12.618Z,2396.00
2018-12-06T11:28:12.493Z,2528.00
2018-12-06T11:29:12.417Z,2576.00
2018-12-06T11:30:12.338Z,3056.00
2018-12-06T11:31:12.261Z,3248.00
2018-12-06T11:32:12.183Z,2992.00
2018-12-06T11:33:12.106Z,3556.00
2018-12-06T11:34:12.030Z,4076.00
2018-12-06T11:35:11.953Z,4340.00
2018-12-06T11:36:11.874Z,4792.00
2018-12-06T11:37:11.798Z,5528.00
2018-12-06T11:38:11.722Z,6768.00
2018-12-06T11:39:11.645Z,7700.00
2018-12-06T11:40:11.566Z,8332.00
2018-12-06T11:41:11.490Z,7672.00
2018-12-06T11:42:11.414Z,7008.00
2018-12-06T11:43:11.335Z,7396.00
2018-12-06T11:44:11.259Z,7880.00
2018-12-06T11:45:11.182Z,7692.00
2018-12-06T11:46:11.106Z,8108.00
2018-12-06T11:47:11.078Z,7868.00
2018-12-06T11:48:10.953Z,7972.00
2018-12-06T11:49:10.876Z,8100.00
2018-12-06T11:50:10.801Z,8296.00
2018-12-06T11:51:10.722Z,8552.00
2018-12-06T11:52:10.646Z,7864.00
2018-12-06T11:53:10.572Z,7152.00
2018-12-06T11:54:10.494Z,7204.00
2018-12-06T11:55:10.419Z,6296.00
2018-12-06T11:56:10.349Z,6276.00
2018-12-06T11:57:10.265Z,5684.00
2018-12-06T11:58:11.525Z,4452.00
2018-12-06T11:59:10.112Z,4276.00
2018-12-06T12:00:10.037Z,4400.00
2018-12-06T12:01:09.961Z,3960.00
2018-12-06T12:02:10.348Z,4028.00
2018-12-06T12:03:10.009Z,3100.00
2018-12-06T12:04:09.732Z,3124.00
2018-12-06T12:05:09.655Z,2952.00
2018-12-06T12:06:09.579Z,2720.00
2018-12-06T12:07:09.503Z,2976.00
2018-12-06T12:08:09.426Z,2904.00
2018-12-06T12:09:09.351Z,3664.00
2018-12-06T12:10:09.275Z,3464.00
2018-12-06T12:11:09.197Z,2944.00
2018-12-06T12:12:09.121Z,3108.00
2018-12-06T12:13:09.045Z,2836.00
2018-12-06T12:14:08.969Z,3040.00
2018-12-06T12:15:08.892Z,4216.00
2018-12-06T12:16:08.816Z,4196.00
2018-12-06T12:17:08.739Z,4512.00
2018-12-06T12:18:08.663Z,3048.00
2018-12-06T12:19:08.585Z,4328.00
2018-12-06T12:20:08.510Z,3676.00
2018-12-06T12:21:08.435Z,4544.00
2018-12-06T12:22:08.358Z,3752.00
2018-12-06T12:23:08.280Z,5364.00
2018-12-06T12:24:08.204Z,4156.00
2018-12-06T12:25:08.179Z,4212.00
2018-12-06T12:26:08.051Z,5636.00
2018-12-06T12:27:07.975Z,5296.00
2018-12-06T12:28:07.899Z,4876.00
2018-12-06T12:29:07.822Z,4772.00
2018-12-06T12:30:07.747Z,4900.00
2018-12-06T12:31:07.669Z,5284.00
2018-12-06T12:32:07.593Z,4208.00
2018-12-06T12:33:07.517Z,4244.00
2018-12-06T12:34:07.442Z,4264.00
2018-12-06T12:35:07.463Z,4708.00
2018-12-06T12:36:07.288Z,6032.00
2018-12-06T12:37:07.215Z,5332.00
2018-12-06T12:38:07.135Z,5116.00
2018-12-06T12:39:07.058Z,5228.00
2018-12-06T12:40:06.982Z,4260.00
2018-12-06T12:41:06.907Z,4596.00
2018-12-06T12:42:06.830Z,4276.00
2018-12-06T12:43:06.754Z,4572.00
2018-12-06T12:44:06.685Z,5308.00
2018-12-06T12:45:06.603Z,5276.00
2018-12-06T12:46:06.526Z,5616.00
2018-12-06T12:47:06.453Z,6592.00